Terminal Aerodrome Forecast
Issued by NWS

Home | Current Version | Previous Version | Text Only | Print | Product List | Glossary On
Versions: 1 2 3 4 5 6 7 8 9 10 11 12 13 14 15 16 17 18 19 20 21 22 23
000
FTUS43 KGRB 181126
TAFCWA
TAF
KCWA 181126Z 1812/1912 29007G15KT P6SM BKN012
      TEMPO 1812/1816 BKN022
     FM181600 31011KT P6SM SCT025 BKN035
     FM181800 30010KT P6SM SCT040 BKN120
     FM190400 00000KT P6SM SCT100
     FM190800 VRB03KT 3SM BR SKC=

USA.gov is the U.S. government's official web portal to all federal, state and local government web resources and services.